Time;durP1;ratioP1;P1;durP2;ratioP2;P2;SDS_P1;SDS_P2;PMS_P1;PMS_P2;Temp;Humidity;BMP_temperature;BMP_pressure;BME280_temperature;BME280_humidity;BME280_pressure;Samples;Min_cycle;Max_cycle;Signal;HPM_P1;HPM_P2
2023/09/18 00:00:21;;;;;;;3.67;3.58;;;;;;;;;;10304693;28;20816;-74
2023/09/18 00:05:22;;;;;;;3.72;3.53;;;;;;;;;;10286120;28;20401;-75
2023/09/18 00:10:24;;;;;;;4.00;3.83;;;;;;;;;;10319614;28;20255;-73
2023/09/18 00:15:26;;;;;;;4.15;3.80;;;;;;;;;;10329828;28;20220;-75
2023/09/18 00:20:28;;;;;;;3.45;3.35;;;;;;;;;;10325203;28;20321;-75
2023/09/18 00:25:30;;;;;;;4.05;3.85;;;;;;;;;;10313030;28;20252;-74
2023/09/18 00:30:31;;;;;;;3.60;3.50;;;;;;;;;;10322986;28;20224;-75
2023/09/18 00:35:32;;;;;;;4.60;4.20;;;;;;;;;;10313734;28;20223;-74
2023/09/18 00:40:33;;;;;;;4.03;3.92;;;;;;;;;;10304605;28;20248;-75
2023/09/18 00:45:35;;;;;;;4.85;4.45;;;;;;;;;;10309302;28;20231;-75
2023/09/18 00:50:37;;;;;;;4.45;4.20;;;;;;;;;;10295595;28;20216;-75
2023/09/18 00:55:38;;;;;;;4.85;4.65;;;;;;;;;;10305031;28;20405;-75
2023/09/18 01:00:40;;;;;;;4.57;4.30;;;;;;;;;;10294770;28;20230;-75
2023/09/18 01:05:41;;;;;;;4.35;4.25;;;;;;;;;;10298271;28;20833;-74
2023/09/18 01:10:57;;;;;;;4.15;4.00;;;;;;;;;;10311469;28;20695;-74
2023/09/18 01:16:02;;;;;;;4.45;4.15;;;;;;;;;;10300446;28;20220;-74
2023/09/18 01:21:03;;;;;;;3.72;3.63;;;;;;;;;;10292149;28;20220;-75
2023/09/18 01:26:04;;;;;;;5.13;4.72;;;;;;;;;;10284841;28;20634;-74
2023/09/18 01:31:05;;;;;;;4.32;4.13;;;;;;;;;;10289742;28;20227;-74
2023/09/18 01:36:08;;;;;;;3.95;3.85;;;;;;;;;;10265195;28;20221;-75
2023/09/18 01:41:09;;;;;;;3.88;3.75;;;;;;;;;;10291574;28;20220;-74
2023/09/18 01:46:10;;;;;;;4.68;4.22;;;;;;;;;;10300338;28;20224;-75
2023/09/18 01:51:14;;;;;;;4.80;4.50;;;;;;;;;;10259772;28;20221;-74
2023/09/18 01:56:15;;;;;;;4.35;4.15;;;;;;;;;;10302151;28;20642;-75
2023/09/18 02:01:16;;;;;;;5.15;4.75;;;;;;;;;;10283645;28;20617;-75
2023/09/18 02:06:17;;;;;;;4.70;4.30;;;;;;;;;;10304283;28;20235;-75
2023/09/18 02:11:18;;;;;;;4.38;4.28;;;;;;;;;;10301700;28;21413;-74
2023/09/18 02:16:24;;;;;;;4.55;4.28;;;;;;;;;;10292121;28;20224;-74
2023/09/18 02:21:25;;;;;;;4.38;4.18;;;;;;;;;;10292399;28;20212;-75
2023/09/18 02:26:26;;;;;;;4.40;4.18;;;;;;;;;;10303477;28;20224;-75
2023/09/18 02:31:27;;;;;;;5.22;4.95;;;;;;;;;;10310016;28;20212;-74
2023/09/18 02:36:29;;;;;;;4.43;4.22;;;;;;;;;;10289419;28;20356;-74
2023/09/18 02:41:30;;;;;;;5.50;5.20;;;;;;;;;;10308563;28;20295;-74
2023/09/18 02:46:31;;;;;;;5.97;5.57;;;;;;;;;;10323131;28;20230;-74
2023/09/18 02:51:32;;;;;;;5.05;4.57;;;;;;;;;;10307204;28;20713;-74
2023/09/18 02:56:33;;;;;;;5.20;4.90;;;;;;;;;;10293016;28;20316;-76
2023/09/18 03:01:34;;;;;;;5.50;5.10;;;;;;;;;;10302647;28;20216;-75
2023/09/18 03:06:39;;;;;;;4.18;4.00;;;;;;;;;;10307658;28;20224;-75
2023/09/18 03:11:40;;;;;;;4.47;4.28;;;;;;;;;;10295748;28;20224;-74
2023/09/18 03:16:41;;;;;;;5.18;4.75;;;;;;;;;;10294581;28;20228;-75
2023/09/18 03:21:42;;;;;;;5.32;4.88;;;;;;;;;;10293730;28;20220;-75
2023/09/18 03:26:44;;;;;;;4.72;4.47;;;;;;;;;;10305014;28;20224;-75
2023/09/18 03:31:45;;;;;;;4.93;4.57;;;;;;;;;;10278209;28;20706;-75
2023/09/18 03:36:46;;;;;;;4.85;4.57;;;;;;;;;;10311398;28;20216;-75
2023/09/18 03:41:48;;;;;;;4.47;4.22;;;;;;;;;;10283121;28;20235;-75
2023/09/18 03:46:49;;;;;;;4.68;4.50;;;;;;;;;;10295963;28;20312;-76
2023/09/18 03:51:50;;;;;;;4.53;4.22;;;;;;;;;;10280094;28;20212;-76
2023/09/18 03:56:51;;;;;;;5.03;4.63;;;;;;;;;;10294958;28;20311;-75
2023/09/18 04:01:52;;;;;;;4.63;4.32;;;;;;;;;;10294672;28;20737;-76
2023/09/18 04:06:54;;;;;;;4.80;4.53;;;;;;;;;;10291894;28;20221;-76
2023/09/18 04:11:55;;;;;;;4.88;4.57;;;;;;;;;;10292001;28;20223;-77
2023/09/18 04:16:56;;;;;;;6.03;5.47;;;;;;;;;;10294882;28;20222;-76
2023/09/18 04:21:57;;;;;;;4.93;4.63;;;;;;;;;;10317393;28;20223;-76
2023/09/18 04:26:59;;;;;;;5.25;4.95;;;;;;;;;;10309611;28;20228;-76
2023/09/18 04:32:00;;;;;;;5.47;5.07;;;;;;;;;;10312366;28;20378;-75
2023/09/18 04:37:03;;;;;;;5.85;5.35;;;;;;;;;;10322918;28;20279;-76
2023/09/18 04:42:05;;;;;;;5.90;5.50;;;;;;;;;;10290606;28;20690;-76
2023/09/18 04:47:06;;;;;;;5.75;5.13;;;;;;;;;;10299531;28;22080;-77
2023/09/18 04:52:07;;;;;;;6.03;5.60;;;;;;;;;;10302284;28;20254;-76
2023/09/18 04:57:09;;;;;;;6.15;5.53;;;;;;;;;;10307695;28;20314;-76
2023/09/18 05:02:11;;;;;;;5.60;5.25;;;;;;;;;;10287933;28;20315;-77
2023/09/18 05:07:12;;;;;;;5.65;5.35;;;;;;;;;;10306804;28;20222;-76
2023/09/18 05:12:15;;;;;;;5.82;5.35;;;;;;;;;;10296941;28;20219;-77
2023/09/18 05:17:17;;;;;;;5.90;5.60;;;;;;;;;;10288604;28;20209;-78
2023/09/18 05:22:18;;;;;;;5.90;5.35;;;;;;;;;;10275108;28;20625;-77
2023/09/18 05:27:19;;;;;;;5.47;5.18;;;;;;;;;;10315273;28;20228;-77
2023/09/18 05:32:20;;;;;;;4.97;4.68;;;;;;;;;;10295361;28;20229;-76
2023/09/18 05:37:21;;;;;;;5.03;4.72;;;;;;;;;;10315514;28;20753;-76
2023/09/18 05:42:22;;;;;;;6.68;4.90;;;;;;;;;;10307465;28;20231;-77
2023/09/18 05:47:23;;;;;;;4.57;4.30;;;;;;;;;;10298531;28;20220;-77
2023/09/18 05:52:25;;;;;;;5.38;4.45;;;;;;;;;;10313521;28;20217;-77
2023/09/18 05:57:27;;;;;;;4.88;4.45;;;;;;;;;;10276131;28;20242;-76
2023/09/18 06:02:28;;;;;;;4.00;3.90;;;;;;;;;;10314067;28;20224;-76
2023/09/18 06:07:30;;;;;;;4.50;4.22;;;;;;;;;;10223970;28;1070085;-77
2023/09/18 06:12:31;;;;;;;4.38;4.10;;;;;;;;;;10295908;28;20251;-77
2023/09/18 06:17:32;;;;;;;4.82;4.00;;;;;;;;;;10303838;28;20274;-77
2023/09/18 06:22:33;;;;;;;5.38;4.10;;;;;;;;;;10307493;28;20215;-77
2023/09/18 06:27:37;;;;;;;4.18;3.58;;;;;;;;;;10309511;28;20327;-77
2023/09/18 06:32:38;;;;;;;4.38;3.50;;;;;;;;;;10272309;28;20750;-77
2023/09/18 06:37:39;;;;;;;4.25;3.95;;;;;;;;;;10299478;28;20257;-77
2023/09/18 06:42:40;;;;;;;3.80;3.50;;;;;;;;;;10286202;28;20216;-77
2023/09/18 06:47:43;;;;;;;4.65;3.90;;;;;;;;;;10292414;28;20224;-77
2023/09/18 06:52:44;;;;;;;3.42;3.17;;;;;;;;;;10300314;28;20919;-77
2023/09/18 06:57:45;;;;;;;3.40;3.30;;;;;;;;;;10272023;28;20220;-77
2023/09/18 07:02:46;;;;;;;4.53;2.78;;;;;;;;;;10282131;28;20299;-77
2023/09/18 07:07:47;;;;;;;3.58;3.35;;;;;;;;;;10289644;28;20697;-77
2023/09/18 07:12:48;;;;;;;3.15;2.90;;;;;;;;;;10297303;28;20686;-77
2023/09/18 07:17:49;;;;;;;3.10;3.00;;;;;;;;;;10280672;28;20657;-77
2023/09/18 07:22:51;;;;;;;3.17;3.08;;;;;;;;;;10311495;28;20351;-77
2023/09/18 07:27:52;;;;;;;2.65;2.55;;;;;;;;;;10290918;28;20220;-78
2023/09/18 07:32:57;;;;;;;7.55;3.45;;;;;;;;;;10288852;28;20215;-77
2023/09/18 07:37:58;;;;;;;3.80;3.22;;;;;;;;;;10290359;28;20302;-76
2023/09/18 07:42:59;;;;;;;2.50;2.33;;;;;;;;;;10274643;28;20216;-77
2023/09/18 07:48:00;;;;;;;3.15;2.95;;;;;;;;;;10318101;28;20224;-77
2023/09/18 07:53:01;;;;;;;2.70;2.55;;;;;;;;;;10314508;28;20213;-76
2023/09/18 07:58:03;;;;;;;2.58;2.47;;;;;;;;;;10285712;28;20218;-76
2023/09/18 08:03:04;;;;;;;3.08;2.97;;;;;;;;;;10321406;28;20213;-77
2023/09/18 08:08:05;;;;;;;3.53;2.78;;;;;;;;;;10306232;28;20231;-77
2023/09/18 08:13:06;;;;;;;2.58;2.47;;;;;;;;;;10281494;28;20223;-77
2023/09/18 08:18:07;;;;;;;2.20;2.20;;;;;;;;;;10302054;28;20792;-77
2023/09/18 08:23:10;;;;;;;2.75;2.55;;;;;;;;;;10284845;28;20227;-76
2023/09/18 08:28:11;;;;;;;2.92;2.72;;;;;;;;;;10256645;28;20225;-77
2023/09/18 08:33:12;;;;;;;2.20;2.10;;;;;;;;;;10304382;28;20271;-76
2023/09/18 08:38:14;;;;;;;2.95;2.75;;;;;;;;;;10283039;28;20888;-77
2023/09/18 08:43:17;;;;;;;4.47;2.97;;;;;;;;;;10301891;28;21393;-77
2023/09/18 08:48:18;;;;;;;2.95;2.60;;;;;;;;;;10305422;28;20595;-77
2023/09/18 08:53:19;;;;;;;2.45;2.25;;;;;;;;;;10298156;28;20222;-76
2023/09/18 08:58:22;;;;;;;3.65;3.10;;;;;;;;;;10285812;28;20217;-77
2023/09/18 09:03:23;;;;;;;3.00;2.88;;;;;;;;;;10286231;28;20220;-77
2023/09/18 09:08:24;;;;;;;2.47;2.35;;;;;;;;;;10295787;28;20220;-77
2023/09/18 09:13:28;;;;;;;2.50;2.30;;;;;;;;;;10296801;28;20224;-77
2023/09/18 09:18:31;;;;;;;2.50;2.17;;;;;;;;;;10282354;28;20260;-78
2023/09/18 09:23:49;;;;;;;2.17;2.08;;;;;;;;;;10290014;28;20694;-77
2023/09/18 09:28:50;;;;;;;2.20;2.20;;;;;;;;;;10276932;28;20231;-76
2023/09/18 09:34:00;;;;;;;1.80;1.80;;;;;;;;;;10276630;28;21402;-77
2023/09/18 09:39:04;;;;;;;3.45;2.17;;;;;;;;;;10277681;28;20228;-77
2023/09/18 09:44:06;;;;;;;1.98;1.95;;;;;;;;;;10284798;28;20213;-76
2023/09/18 09:49:07;;;;;;;2.17;2.00;;;;;;;;;;10283263;28;20255;-77
2023/09/18 09:54:08;;;;;;;1.77;1.67;;;;;;;;;;10286678;28;20267;-77
2023/09/18 09:59:11;;;;;;;2.28;2.10;;;;;;;;;;10284542;28;20465;-78
2023/09/18 10:04:13;;;;;;;2.25;2.25;;;;;;;;;;10272655;28;20213;-77
2023/09/18 10:09:15;;;;;;;2.78;2.25;;;;;;;;;;10274007;28;20247;-77
2023/09/18 10:14:20;;;;;;;2.80;2.22;;;;;;;;;;10299157;28;20662;-77
2023/09/18 10:19:23;;;;;;;2.88;2.17;;;;;;;;;;10283396;28;20213;-77
2023/09/18 10:24:30;;;;;;;3.33;2.40;;;;;;;;;;10298974;28;20232;-77
2023/09/18 10:29:34;;;;;;;2.60;2.17;;;;;;;;;;10313959;28;20231;-76
2023/09/18 10:34:36;;;;;;;2.22;2.13;;;;;;;;;;10294272;28;20306;-78
2023/09/18 10:39:39;;;;;;;4.72;2.60;;;;;;;;;;10293738;28;20217;-78
2023/09/18 10:44:41;;;;;;;2.50;2.38;;;;;;;;;;10295930;28;20224;-78
2023/09/18 10:49:42;;;;;;;1.95;1.95;;;;;;;;;;10293684;28;20679;-78
2023/09/18 10:54:44;;;;;;;2.40;2.20;;;;;;;;;;10285771;28;20219;-78
2023/09/18 10:59:46;;;;;;;2.40;1.98;;;;;;;;;;10289693;28;20217;-78
2023/09/18 11:04:48;;;;;;;4.57;1.92;;;;;;;;;;10296206;28;20304;-78
2023/09/18 11:09:49;;;;;;;2.00;2.00;;;;;;;;;;10293747;28;20231;-77
2023/09/18 11:14:56;;;;;;;4.68;2.08;;;;;;;;;;10300058;28;20251;-78
2023/09/18 11:20:12;;;;;;;3.80;2.25;;;;;;;;;;10318435;28;20306;-77
2023/09/18 11:25:34;;;;;;;1.88;1.77;;;;;;;;;;10277685;28;20200;-77
2023/09/18 11:30:39;;;;;;;5.60;1.50;;;;;;;;;;10322883;28;20212;-77
2023/09/18 11:35:52;;;;;;;1.08;0.98;;;;;;;;;;10314101;28;20208;-78
2023/09/18 11:40:53;;;;;;;1.60;0.88;;;;;;;;;;10308407;28;20640;-77
2023/09/18 11:45:55;;;;;;;4.03;1.30;;;;;;;;;;10280570;28;20224;-78
2023/09/18 11:50:58;;;;;;;4.40;1.42;;;;;;;;;;10297677;28;20267;-78
2023/09/18 11:55:59;;;;;;;2.90;0.90;;;;;;;;;;10303614;28;20217;-78
2023/09/18 12:01:12;;;;;;;0.77;0.73;;;;;;;;;;10288859;28;20316;-77
2023/09/18 12:06:14;;;;;;;1.75;0.80;;;;;;;;;;10311148;28;20737;-77
2023/09/18 12:11:19;;;;;;;2.08;1.08;;;;;;;;;;10315853;28;20283;-77
2023/09/18 12:16:20;;;;;;;2.08;0.90;;;;;;;;;;10317231;28;20223;-77
2023/09/18 12:21:21;;;;;;;3.05;1.10;;;;;;;;;;10294862;28;20230;-77
2023/09/18 12:26:24;;;;;;;1.83;0.80;;;;;;;;;;10286746;28;20250;-77
2023/09/18 12:31:26;;;;;;;4.60;0.68;;;;;;;;;;10307585;28;20605;-78
2023/09/18 12:36:27;;;;;;;2.38;0.70;;;;;;;;;;10297494;28;20311;-77
2023/09/18 12:41:30;;;;;;;4.03;1.02;;;;;;;;;;10294506;28;20211;-77
2023/09/18 12:46:32;;;;;;;1.65;0.60;;;;;;;;;;10304474;28;20235;-76
2023/09/18 12:51:33;;;;;;;2.17;1.00;;;;;;;;;;10293072;28;20275;-78
2023/09/18 12:56:40;;;;;;;2.15;0.95;;;;;;;;;;10298952;28;20340;-77
2023/09/18 13:01:46;;;;;;;3.80;0.65;;;;;;;;;;10299550;28;20228;-77
2023/09/18 13:06:47;;;;;;;5.15;0.95;;;;;;;;;;10287222;28;20347;-77
2023/09/18 13:11:52;;;;;;;1.60;0.70;;;;;;;;;;10298315;28;20213;-77
2023/09/18 13:16:53;;;;;;;0.60;0.60;;;;;;;;;;10309759;28;20783;-77
2023/09/18 13:21:55;;;;;;;6.72;0.90;;;;;;;;;;10309958;28;20200;-77
2023/09/18 13:26:56;;;;;;;2.80;0.70;;;;;;;;;;10309480;28;20229;-77
2023/09/18 13:31:57;;;;;;;2.92;0.90;;;;;;;;;;10314227;28;20225;-77
2023/09/18 13:36:58;;;;;;;1.00;0.60;;;;;;;;;;10303206;28;20920;-77
2023/09/18 13:41:59;;;;;;;2.63;0.70;;;;;;;;;;10295643;28;20236;-77
2023/09/18 13:47:00;;;;;;;3.65;0.70;;;;;;;;;;10304595;28;20252;-77
2023/09/18 13:52:02;;;;;;;5.68;0.70;;;;;;;;;;10320981;28;20232;-77
2023/09/18 13:57:05;;;;;;;1.65;0.50;;;;;;;;;;10302141;28;20209;-78
2023/09/18 14:02:06;;;;;;;2.58;0.68;;;;;;;;;;10293172;28;20702;-77
2023/09/18 14:07:08;;;;;;;1.30;0.77;;;;;;;;;;10304112;28;20220;-77
2023/09/18 14:12:09;;;;;;;1.35;0.70;;;;;;;;;;10306945;28;20219;-78
2023/09/18 14:17:10;;;;;;;1.98;0.60;;;;;;;;;;10299146;28;20253;-79
2023/09/18 14:22:12;;;;;;;2.15;0.80;;;;;;;;;;10329982;28;20307;-79
2023/09/18 14:27:13;;;;;;;1.67;0.70;;;;;;;;;;10309261;28;20234;-78
2023/09/18 14:32:14;;;;;;;1.33;0.60;;;;;;;;;;10319017;28;20879;-79
2023/09/18 14:37:15;;;;;;;0.73;0.50;;;;;;;;;;10309637;28;20219;-79
2023/09/18 14:42:16;;;;;;;2.60;0.60;;;;;;;;;;10316168;28;20246;-79
2023/09/18 14:47:17;;;;;;;1.85;0.95;;;;;;;;;;10317101;28;20208;-78
2023/09/18 14:52:21;;;;;;;1.33;0.60;;;;;;;;;;10307338;28;22389;-79
2023/09/18 14:57:22;;;;;;;1.67;0.50;;;;;;;;;;10314335;28;20231;-78
2023/09/18 15:02:27;;;;;;;0.70;0.70;;;;;;;;;;10298922;28;20224;-78
2023/09/18 15:07:29;;;;;;;2.15;0.55;;;;;;;;;;10302179;28;20216;-78
2023/09/18 15:12:30;;;;;;;1.13;0.60;;;;;;;;;;10301212;28;20217;-78
2023/09/18 15:17:32;;;;;;;0.98;0.60;;;;;;;;;;10301448;28;20213;-79
2023/09/18 15:22:34;;;;;;;3.22;0.88;;;;;;;;;;10299442;28;20220;-80
2023/09/18 15:27:35;;;;;;;2.33;0.80;;;;;;;;;;10287337;28;20220;-79
2023/09/18 15:32:46;;;;;;;2.05;0.65;;;;;;;;;;10306178;28;20213;-78
2023/09/18 15:37:47;;;;;;;2.70;0.68;;;;;;;;;;10275673;28;20260;-79
2023/09/18 15:42:52;;;;;;;2.25;0.68;;;;;;;;;;10291014;28;20215;-78
2023/09/18 15:47:53;;;;;;;3.20;0.77;;;;;;;;;;10276750;28;20209;-79
2023/09/18 15:52:54;;;;;;;5.63;0.82;;;;;;;;;;10288769;28;20212;-79
2023/09/18 15:57:56;;;;;;;1.95;0.73;;;;;;;;;;10280871;28;20777;-78
2023/09/18 16:02:57;;;;;;;3.55;0.70;;;;;;;;;;10299287;28;20713;-78
2023/09/18 16:07:59;;;;;;;2.05;0.88;;;;;;;;;;10303590;28;20231;-78
2023/09/18 16:13:00;;;;;;;0.85;0.70;;;;;;;;;;10321356;28;20276;-77
2023/09/18 16:18:03;;;;;;;0.77;0.77;;;;;;;;;;10306701;28;21404;-77
2023/09/18 16:23:04;;;;;;;2.90;0.80;;;;;;;;;;10304962;28;20981;-77
2023/09/18 16:28:06;;;;;;;4.85;1.10;;;;;;;;;;10296775;28;20267;-77
2023/09/18 16:33:07;;;;;;;3.60;0.80;;;;;;;;;;10302934;28;20208;-78
2023/09/18 16:38:08;;;;;;;2.40;0.60;;;;;;;;;;10316490;28;20216;-77
2023/09/18 16:43:10;;;;;;;3.40;0.77;;;;;;;;;;10299269;28;20211;-78
2023/09/18 16:48:11;;;;;;;3.20;0.82;;;;;;;;;;10289426;28;20216;-77
2023/09/18 16:53:12;;;;;;;0.80;0.80;;;;;;;;;;10302982;28;20223;-76
2023/09/18 16:58:13;;;;;;;2.13;0.82;;;;;;;;;;10324767;28;21787;-77
2023/09/18 17:03:14;;;;;;;1.67;0.77;;;;;;;;;;10304047;28;20617;-77
2023/09/18 17:08:15;;;;;;;0.65;0.65;;;;;;;;;;10311225;28;20706;-76
2023/09/18 17:13:16;;;;;;;0.80;0.80;;;;;;;;;;10301019;28;20223;-76
2023/09/18 17:18:18;;;;;;;0.73;0.70;;;;;;;;;;10294396;28;20267;-75
2023/09/18 17:23:20;;;;;;;1.75;0.70;;;;;;;;;;10283010;28;20225;-76
2023/09/18 17:28:21;;;;;;;3.25;0.90;;;;;;;;;;10288505;28;20230;-76
2023/09/18 17:33:22;;;;;;;2.38;0.88;;;;;;;;;;10305183;28;20213;-76
2023/09/18 17:38:24;;;;;;;4.65;1.02;;;;;;;;;;10316004;28;20221;-75
2023/09/18 17:43:25;;;;;;;0.55;0.55;;;;;;;;;;10284035;28;20243;-77
2023/09/18 17:48:26;;;;;;;1.63;0.50;;;;;;;;;;10290542;28;20224;-77
2023/09/18 17:53:28;;;;;;;0.95;0.65;;;;;;;;;;10314704;28;20208;-77
2023/09/18 17:58:29;;;;;;;3.72;0.60;;;;;;;;;;10302738;28;20221;-77
2023/09/18 18:03:31;;;;;;;2.80;0.50;;;;;;;;;;10303370;28;20232;-77
2023/09/18 18:08:32;;;;;;;2.47;0.70;;;;;;;;;;10298135;28;20224;-76
2023/09/18 18:13:33;;;;;;;1.95;0.80;;;;;;;;;;10277305;28;20224;-75
2023/09/18 18:18:34;;;;;;;1.15;0.80;;;;;;;;;;10288631;28;20239;-76
2023/09/18 18:23:35;;;;;;;2.05;0.70;;;;;;;;;;10280422;28;20232;-73
2023/09/18 18:28:40;;;;;;;2.35;1.45;;;;;;;;;;10301877;28;20319;-74
2023/09/18 18:33:41;;;;;;;3.40;1.00;;;;;;;;;;10302419;28;20244;-76
2023/09/18 18:38:42;;;;;;;2.05;0.80;;;;;;;;;;10290412;28;21044;-76
2023/09/18 18:43:43;;;;;;;2.47;0.80;;;;;;;;;;10293747;28;20652;-76
2023/09/18 18:48:44;;;;;;;1.73;0.80;;;;;;;;;;10287873;28;20706;-75
2023/09/18 18:53:45;;;;;;;0.77;0.77;;;;;;;;;;10290129;28;20235;-75
2023/09/18 18:58:48;;;;;;;1.00;0.73;;;;;;;;;;10294502;28;20260;-76
2023/09/18 19:03:49;;;;;;;2.67;2.20;;;;;;;;;;10303449;28;20271;-75
2023/09/18 19:08:50;;;;;;;2.30;1.40;;;;;;;;;;10290349;28;20232;-75
2023/09/18 19:13:51;;;;;;;7.47;4.40;;;;;;;;;;10271552;28;20636;-74
2023/09/18 19:18:53;;;;;;;4.07;1.98;;;;;;;;;;10283446;28;20225;-74
2023/09/18 19:23:54;;;;;;;15.32;8.15;;;;;;;;;;10268778;28;20248;-75
2023/09/18 19:28:55;;;;;;;24.60;13.77;;;;;;;;;;10288014;28;20731;-75
2023/09/18 19:33:58;;;;;;;5.25;2.50;;;;;;;;;;10271036;28;20208;-74
2023/09/18 19:38:59;;;;;;;1.60;1.17;;;;;;;;;;10314918;28;20765;-76
2023/09/18 19:44:00;;;;;;;1.00;1.00;;;;;;;;;;10303890;28;20216;-75
2023/09/18 19:49:04;;;;;;;1.13;1.08;;;;;;;;;;10302628;28;20225;-75
2023/09/18 19:54:06;;;;;;;4.80;1.00;;;;;;;;;;10309766;28;20201;-76
2023/09/18 19:59:07;;;;;;;3.30;0.85;;;;;;;;;;10300257;28;20906;-76
2023/09/18 20:04:08;;;;;;;2.75;1.30;;;;;;;;;;10313028;28;20220;-76
2023/09/18 20:09:09;;;;;;;4.10;0.98;;;;;;;;;;10311780;28;20707;-75
2023/09/18 20:14:10;;;;;;;1.60;0.90;;;;;;;;;;10311173;28;20213;-75
2023/09/18 20:19:14;;;;;;;1.00;0.93;;;;;;;;;;10313807;28;20870;-76
2023/09/18 20:24:15;;;;;;;4.82;1.35;;;;;;;;;;10310488;28;20226;-77
2023/09/18 20:29:17;;;;;;;2.33;1.33;;;;;;;;;;10304716;28;20637;-76
2023/09/18 20:34:21;;;;;;;1.73;1.45;;;;;;;;;;10284675;28;20578;-77
2023/09/18 20:39:23;;;;;;;2.88;1.13;;;;;;;;;;10291619;28;20220;-79
2023/09/18 20:44:25;;;;;;;0.85;0.80;;;;;;;;;;10299590;28;20217;-76
2023/09/18 20:49:26;;;;;;;0.95;0.85;;;;;;;;;;10287457;28;20251;-76
2023/09/18 20:54:27;;;;;;;1.27;1.05;;;;;;;;;;10298031;28;20684;-76
2023/09/18 20:59:28;;;;;;;1.35;0.70;;;;;;;;;;10302220;28;20228;-75
2023/09/18 21:04:29;;;;;;;1.63;1.10;;;;;;;;;;10301670;28;20208;-76
2023/09/18 21:09:31;;;;;;;0.90;0.90;;;;;;;;;;10327679;28;20224;-76
2023/09/18 21:14:32;;;;;;;1.70;0.70;;;;;;;;;;10331350;28;20208;-76
2023/09/18 21:19:33;;;;;;;1.40;1.20;;;;;;;;;;10312522;28;20604;-76
2023/09/18 21:24:34;;;;;;;1.05;0.90;;;;;;;;;;10311256;28;20227;-75
2023/09/18 21:29:35;;;;;;;1.30;0.90;;;;;;;;;;10329780;28;20220;-78
2023/09/18 21:34:37;;;;;;;2.25;0.70;;;;;;;;;;10318339;28;20204;-77
2023/09/18 21:39:38;;;;;;;1.52;0.80;;;;;;;;;;10328166;28;20224;-77
2023/09/18 21:44:39;;;;;;;2.38;0.70;;;;;;;;;;10307581;28;20755;-77
2023/09/18 21:49:43;;;;;;;1.00;0.90;;;;;;;;;;10329187;28;20331;-77
2023/09/18 21:54:44;;;;;;;5.47;0.63;;;;;;;;;;10328307;28;20220;-78
2023/09/18 21:59:45;;;;;;;1.08;0.70;;;;;;;;;;10304558;28;20588;-78
2023/09/18 22:04:46;;;;;;;1.85;1.50;;;;;;;;;;10309642;28;20208;-77
2023/09/18 22:09:52;;;;;;;1.48;0.80;;;;;;;;;;10283703;28;20235;-77
2023/09/18 22:14:53;;;;;;;1.10;1.10;;;;;;;;;;10292501;28;20593;-76
2023/09/18 22:19:54;;;;;;;0.88;0.85;;;;;;;;;;10310300;28;20332;-77
2023/09/18 22:24:55;;;;;;;2.47;0.90;;;;;;;;;;10308104;28;20220;-77
2023/09/18 22:29:56;;;;;;;1.20;0.82;;;;;;;;;;10307410;28;20236;-77
2023/09/18 22:34:57;;;;;;;1.63;0.80;;;;;;;;;;10307282;28;20215;-77
2023/09/18 22:40:07;;;;;;;0.90;0.90;;;;;;;;;;10305366;28;20227;-77
2023/09/18 22:45:26;;;;;;;2.85;0.93;;;;;;;;;;10297470;28;20861;-77
2023/09/18 22:50:46;;;;;;;1.48;0.95;;;;;;;;;;10309863;28;20749;-77
2023/09/18 22:55:47;;;;;;;0.93;0.90;;;;;;;;;;10302973;28;20212;-77
2023/09/18 23:00:49;;;;;;;0.80;0.80;;;;;;;;;;10293003;28;20282;-77
2023/09/18 23:05:51;;;;;;;0.88;0.88;;;;;;;;;;10301746;28;20247;-77
2023/09/18 23:10:52;;;;;;;0.77;0.77;;;;;;;;;;10314119;28;20776;-77
2023/09/18 23:15:53;;;;;;;0.70;0.70;;;;;;;;;;10304810;28;20273;-77
2023/09/18 23:20:57;;;;;;;0.75;0.75;;;;;;;;;;10292624;28;20220;-75
2023/09/18 23:25:59;;;;;;;0.82;0.82;;;;;;;;;;10311790;28;20792;-77
2023/09/18 23:31:00;;;;;;;1.58;0.93;;;;;;;;;;10305350;28;20224;-77
2023/09/18 23:36:03;;;;;;;0.88;0.82;;;;;;;;;;10325362;28;20216;-77
2023/09/18 23:41:07;;;;;;;1.77;0.70;;;;;;;;;;10330195;28;20259;-76
2023/09/18 23:46:10;;;;;;;0.20;0.20;;;;;;;;;;10304373;28;20216;-77
2023/09/18 23:51:11;;;;;;;0.68;0.30;;;;;;;;;;10309970;28;20212;-76
2023/09/18 23:56:16;;;;;;;0.20;0.20;;;;;;;;;;10327590;28;20263;-76
